Terminal Aerodrome Forecast
Issued by NWS

Home | Current Version | Previous Version | Text Only | Print | Product List | Glossary On
Versions: 1 2 3 4 5 6 7 8 9 10 11 12 13 14 15 16 17 18 19
000
FTUS43 KAPX 281129
TAFMBL
TAF
KMBL 281129Z 2812/2912 16003KT P6SM OVC030
     FM281700 16005KT 3SM -SN OVC025
     FM282100 16004KT 1SM -SN OVC015
     FM290900 14003KT 5SM -SN OVC012
      AMD LTD TO CLD VIS AND WIND=

USA.gov is the U.S. government's official web portal to all federal, state and local government web resources and services.